sensor_id;sensor_type;location;lat;lon;timestamp;P1;durP1;ratioP1;P2;durP2;ratioP2
77117;SDS011;66072;50.238;19.228;2023-03-14T00:01:52;26.80;;;13.70;;
77117;SDS011;66072;50.238;19.228;2023-03-14T00:04:20;28.20;;;15.40;;
77117;SDS011;66072;50.238;19.228;2023-03-14T00:06:48;35.90;;;16.40;;
77117;SDS011;66072;50.238;19.228;2023-03-14T00:09:16;28.40;;;15.60;;
77117;SDS011;66072;50.238;19.228;2023-03-14T00:11:44;31.20;;;17.70;;
77117;SDS011;66072;50.238;19.228;2023-03-14T00:14:12;29.20;;;17.50;;
77117;SDS011;66072;50.238;19.228;2023-03-14T00:16:39;30.00;;;18.50;;
77117;SDS011;66072;50.238;19.228;2023-03-14T00:19:07;33.50;;;20.50;;
77117;SDS011;66072;50.238;19.228;2023-03-14T00:21:34;34.50;;;21.30;;
77117;SDS011;66072;50.238;19.228;2023-03-14T00:24:02;28.30;;;18.80;;
77117;SDS011;66072;50.238;19.228;2023-03-14T00:26:30;24.80;;;14.40;;
77117;SDS011;66072;50.238;19.228;2023-03-14T00:28:57;24.80;;;16.50;;
77117;SDS011;66072;50.238;19.228;2023-03-14T00:31:25;25.20;;;17.30;;
77117;SDS011;66072;50.238;19.228;2023-03-14T00:33:53;21.90;;;16.60;;
77117;SDS011;66072;50.238;19.228;2023-03-14T00:36:20;17.10;;;13.70;;
77117;SDS011;66072;50.238;19.228;2023-03-14T00:38:49;23.60;;;16.50;;
77117;SDS011;66072;50.238;19.228;2023-03-14T00:41:20;15.40;;;11.10;;
77117;SDS011;66072;50.238;19.228;2023-03-14T00:43:49;10.70;;;7.30;;
77117;SDS011;66072;50.238;19.228;2023-03-14T00:46:18;11.50;;;6.70;;
77117;SDS011;66072;50.238;19.228;2023-03-14T00:48:46;8.20;;;5.70;;
77117;SDS011;66072;50.238;19.228;2023-03-14T00:51:14;10.00;;;6.10;;
77117;SDS011;66072;50.238;19.228;2023-03-14T00:53:42;11.20;;;5.50;;
77117;SDS011;66072;50.238;19.228;2023-03-14T00:56:11;13.30;;;6.80;;
77117;SDS011;66072;50.238;19.228;2023-03-14T00:58:39;15.60;;;10.10;;
77117;SDS011;66072;50.238;19.228;2023-03-14T01:03:36;14.20;;;8.60;;
77117;SDS011;66072;50.238;19.228;2023-03-14T01:06:08;14.80;;;9.00;;
77117;SDS011;66072;50.238;19.228;2023-03-14T01:08:43;13.40;;;8.50;;
77117;SDS011;66072;50.238;19.228;2023-03-14T01:11:13;13.80;;;9.40;;
77117;SDS011;66072;50.238;19.228;2023-03-14T01:13:49;12.00;;;8.00;;
77117;SDS011;66072;50.238;19.228;2023-03-14T01:16:17;12.20;;;7.70;;
77117;SDS011;66072;50.238;19.228;2023-03-14T01:18:47;12.30;;;7.50;;
77117;SDS011;66072;50.238;19.228;2023-03-14T01:21:16;10.30;;;7.10;;
77117;SDS011;66072;50.238;19.228;2023-03-14T01:23:48;6.70;;;4.70;;
77117;SDS011;66072;50.238;19.228;2023-03-14T01:26:17;6.30;;;3.80;;
77117;SDS011;66072;50.238;19.228;2023-03-14T01:28:48;8.30;;;3.90;;
77117;SDS011;66072;50.238;19.228;2023-03-14T01:31:17;6.00;;;3.50;;
77117;SDS011;66072;50.238;19.228;2023-03-14T01:33:45;5.00;;;3.30;;
77117;SDS011;66072;50.238;19.228;2023-03-14T01:36:13;7.80;;;3.70;;
77117;SDS011;66072;50.238;19.228;2023-03-14T01:38:41;5.60;;;3.20;;
77117;SDS011;66072;50.238;19.228;2023-03-14T01:41:12;6.50;;;3.20;;
77117;SDS011;66072;50.238;19.228;2023-03-14T01:43:42;5.40;;;3.40;;
77117;SDS011;66072;50.238;19.228;2023-03-14T01:46:26;5.10;;;3.30;;
77117;SDS011;66072;50.238;19.228;2023-03-14T01:57:17;7.70;;;4.40;;
77117;SDS011;66072;50.238;19.228;2023-03-14T01:59:51;7.00;;;3.60;;
77117;SDS011;66072;50.238;19.228;2023-03-14T02:02:23;5.80;;;3.40;;
77117;SDS011;66072;50.238;19.228;2023-03-14T02:07:26;5.30;;;2.80;;
77117;SDS011;66072;50.238;19.228;2023-03-14T02:10:02;5.10;;;2.60;;
77117;SDS011;66072;50.238;19.228;2023-03-14T02:12:30;3.40;;;1.90;;
77117;SDS011;66072;50.238;19.228;2023-03-14T02:14:59;5.10;;;2.80;;
77117;SDS011;66072;50.238;19.228;2023-03-14T02:17:27;4.50;;;2.70;;
77117;SDS011;66072;50.238;19.228;2023-03-14T02:22:47;23.50;;;12.80;;
77117;SDS011;66072;50.238;19.228;2023-03-14T02:25:33;26.50;;;14.20;;
77117;SDS011;66072;50.238;19.228;2023-03-14T02:28:23;24.10;;;11.30;;
77117;SDS011;66072;50.238;19.228;2023-03-14T02:30:50;26.30;;;13.90;;
77117;SDS011;66072;50.238;19.228;2023-03-14T02:33:19;28.80;;;15.20;;
77117;SDS011;66072;50.238;19.228;2023-03-14T02:35:50;28.50;;;13.90;;
77117;SDS011;66072;50.238;19.228;2023-03-14T02:41:11;16.60;;;7.80;;
77117;SDS011;66072;50.238;19.228;2023-03-14T02:43:39;23.60;;;13.40;;
77117;SDS011;66072;50.238;19.228;2023-03-14T02:46:07;18.80;;;10.70;;
77117;SDS011;66072;50.238;19.228;2023-03-14T02:51:12;17.70;;;9.80;;
77117;SDS011;66072;50.238;19.228;2023-03-14T02:53:41;22.30;;;11.20;;
77117;SDS011;66072;50.238;19.228;2023-03-14T02:56:09;19.00;;;11.10;;
77117;SDS011;66072;50.238;19.228;2023-03-14T02:58:37;22.30;;;11.90;;
77117;SDS011;66072;50.238;19.228;2023-03-14T03:01:05;26.20;;;12.90;;
77117;SDS011;66072;50.238;19.228;2023-03-14T03:03:33;24.80;;;13.70;;
77117;SDS011;66072;50.238;19.228;2023-03-14T03:06:01;18.80;;;10.80;;
77117;SDS011;66072;50.238;19.228;2023-03-14T03:08:29;21.10;;;9.60;;
77117;SDS011;66072;50.238;19.228;2023-03-14T03:10:58;17.50;;;10.10;;
77117;SDS011;66072;50.238;19.228;2023-03-14T03:13:26;21.70;;;11.90;;
77117;SDS011;66072;50.238;19.228;2023-03-14T03:15:53;19.30;;;10.80;;
77117;SDS011;66072;50.238;19.228;2023-03-14T03:18:21;21.10;;;11.70;;
77117;SDS011;66072;50.238;19.228;2023-03-14T03:20:49;18.40;;;10.40;;
77117;SDS011;66072;50.238;19.228;2023-03-14T03:23:16;17.80;;;10.80;;
77117;SDS011;66072;50.238;19.228;2023-03-14T03:25:48;26.00;;;13.50;;
77117;SDS011;66072;50.238;19.228;2023-03-14T03:28:19;22.10;;;12.30;;
77117;SDS011;66072;50.238;19.228;2023-03-14T03:30:47;27.00;;;13.00;;
77117;SDS011;66072;50.238;19.228;2023-03-14T03:33:15;24.80;;;13.40;;
77117;SDS011;66072;50.238;19.228;2023-03-14T03:35:43;26.00;;;13.60;;
77117;SDS011;66072;50.238;19.228;2023-03-14T03:38:15;26.90;;;15.60;;
77117;SDS011;66072;50.238;19.228;2023-03-14T03:40:43;25.70;;;14.00;;
77117;SDS011;66072;50.238;19.228;2023-03-14T03:43:11;21.30;;;12.40;;
77117;SDS011;66072;50.238;19.228;2023-03-14T03:45:39;30.40;;;17.20;;
77117;SDS011;66072;50.238;19.228;2023-03-14T03:48:06;23.70;;;15.10;;
77117;SDS011;66072;50.238;19.228;2023-03-14T03:50:34;25.20;;;13.50;;
77117;SDS011;66072;50.238;19.228;2023-03-14T03:53:02;19.10;;;7.00;;
77117;SDS011;66072;50.238;19.228;2023-03-14T03:55:30;23.10;;;10.70;;
77117;SDS011;66072;50.238;19.228;2023-03-14T03:57:57;22.30;;;11.40;;
77117;SDS011;66072;50.238;19.228;2023-03-14T04:00:25;22.60;;;11.70;;
77117;SDS011;66072;50.238;19.228;2023-03-14T04:02:52;21.00;;;11.20;;
77117;SDS011;66072;50.238;19.228;2023-03-14T04:05:20;18.60;;;10.60;;
77117;SDS011;66072;50.238;19.228;2023-03-14T04:07:48;24.40;;;13.10;;
77117;SDS011;66072;50.238;19.228;2023-03-14T04:10:16;17.30;;;9.80;;
77117;SDS011;66072;50.238;19.228;2023-03-14T04:12:43;15.60;;;8.30;;
77117;SDS011;66072;50.238;19.228;2023-03-14T04:15:11;20.20;;;11.60;;
77117;SDS011;66072;50.238;19.228;2023-03-14T04:17:38;22.50;;;11.20;;
77117;SDS011;66072;50.238;19.228;2023-03-14T04:20:07;16.80;;;9.20;;
77117;SDS011;66072;50.238;19.228;2023-03-14T04:22:35;18.80;;;10.60;;
77117;SDS011;66072;50.238;19.228;2023-03-14T04:25:04;17.50;;;11.30;;
77117;SDS011;66072;50.238;19.228;2023-03-14T04:27:32;17.20;;;8.90;;
77117;SDS011;66072;50.238;19.228;2023-03-14T04:30:00;16.60;;;9.40;;
77117;SDS011;66072;50.238;19.228;2023-03-14T04:32:28;20.50;;;12.50;;
77117;SDS011;66072;50.238;19.228;2023-03-14T04:34:55;19.60;;;13.30;;
77117;SDS011;66072;50.238;19.228;2023-03-14T04:37:23;21.50;;;13.20;;
77117;SDS011;66072;50.238;19.228;2023-03-14T04:39:50;23.20;;;15.40;;
77117;SDS011;66072;50.238;19.228;2023-03-14T04:42:18;22.60;;;14.20;;
77117;SDS011;66072;50.238;19.228;2023-03-14T04:44:46;21.70;;;13.30;;
77117;SDS011;66072;50.238;19.228;2023-03-14T04:47:13;19.60;;;11.70;;
77117;SDS011;66072;50.238;19.228;2023-03-14T04:49:41;16.00;;;10.00;;
77117;SDS011;66072;50.238;19.228;2023-03-14T04:52:08;19.90;;;10.80;;
77117;SDS011;66072;50.238;19.228;2023-03-14T04:54:36;14.40;;;9.40;;
77117;SDS011;66072;50.238;19.228;2023-03-14T04:57:04;16.90;;;10.90;;
77117;SDS011;66072;50.238;19.228;2023-03-14T04:59:31;19.90;;;12.50;;
77117;SDS011;66072;50.238;19.228;2023-03-14T05:01:59;19.40;;;11.70;;
77117;SDS011;66072;50.238;19.228;2023-03-14T05:04:27;27.40;;;15.50;;
77117;SDS011;66072;50.238;19.228;2023-03-14T05:06:54;25.80;;;16.60;;
77117;SDS011;66072;50.238;19.228;2023-03-14T05:09:22;28.00;;;16.90;;
77117;SDS011;66072;50.238;19.228;2023-03-14T05:11:50;32.10;;;21.90;;
77117;SDS011;66072;50.238;19.228;2023-03-14T05:14:17;36.80;;;25.40;;
77117;SDS011;66072;50.238;19.228;2023-03-14T05:16:45;36.40;;;25.30;;
77117;SDS011;66072;50.238;19.228;2023-03-14T05:19:12;33.20;;;24.00;;
77117;SDS011;66072;50.238;19.228;2023-03-14T05:21:40;26.40;;;15.70;;
77117;SDS011;66072;50.238;19.228;2023-03-14T05:24:08;27.40;;;16.80;;
77117;SDS011;66072;50.238;19.228;2023-03-14T05:26:35;26.20;;;18.00;;
77117;SDS011;66072;50.238;19.228;2023-03-14T05:29:03;27.20;;;19.40;;
77117;SDS011;66072;50.238;19.228;2023-03-14T05:31:30;27.90;;;19.90;;
77117;SDS011;66072;50.238;19.228;2023-03-14T05:33:58;29.10;;;18.50;;
77117;SDS011;66072;50.238;19.228;2023-03-14T05:36:26;21.70;;;13.50;;
77117;SDS011;66072;50.238;19.228;2023-03-14T05:38:53;20.30;;;13.50;;
77117;SDS011;66072;50.238;19.228;2023-03-14T05:41:21;14.50;;;10.40;;
77117;SDS011;66072;50.238;19.228;2023-03-14T05:43:48;14.80;;;8.80;;
77117;SDS011;66072;50.238;19.228;2023-03-14T05:46:16;11.60;;;6.50;;
77117;SDS011;66072;50.238;19.228;2023-03-14T05:48:44;14.10;;;7.70;;
77117;SDS011;66072;50.238;19.228;2023-03-14T05:51:11;14.70;;;7.50;;
77117;SDS011;66072;50.238;19.228;2023-03-14T05:53:39;12.20;;;7.20;;
77117;SDS011;66072;50.238;19.228;2023-03-14T05:56:07;14.10;;;7.80;;
77117;SDS011;66072;50.238;19.228;2023-03-14T05:58:35;10.20;;;6.90;;
77117;SDS011;66072;50.238;19.228;2023-03-14T06:01:03;11.40;;;7.00;;
77117;SDS011;66072;50.238;19.228;2023-03-14T06:03:31;12.10;;;7.40;;
77117;SDS011;66072;50.238;19.228;2023-03-14T06:05:59;9.40;;;6.70;;
77117;SDS011;66072;50.238;19.228;2023-03-14T06:08:27;11.80;;;6.70;;
77117;SDS011;66072;50.238;19.228;2023-03-14T06:10:56;13.50;;;8.40;;
77117;SDS011;66072;50.238;19.228;2023-03-14T06:13:24;15.60;;;7.90;;
77117;SDS011;66072;50.238;19.228;2023-03-14T06:15:52;12.10;;;7.10;;
77117;SDS011;66072;50.238;19.228;2023-03-14T06:18:19;11.30;;;6.60;;
77117;SDS011;66072;50.238;19.228;2023-03-14T06:20:47;14.80;;;8.20;;
77117;SDS011;66072;50.238;19.228;2023-03-14T06:23:15;12.20;;;7.40;;
77117;SDS011;66072;50.238;19.228;2023-03-14T06:25:42;15.70;;;7.40;;
77117;SDS011;66072;50.238;19.228;2023-03-14T06:28:10;10.70;;;6.40;;
77117;SDS011;66072;50.238;19.228;2023-03-14T06:30:37;9.30;;;5.20;;
77117;SDS011;66072;50.238;19.228;2023-03-14T06:33:05;8.60;;;4.60;;
77117;SDS011;66072;50.238;19.228;2023-03-14T06:35:33;7.20;;;4.20;;
77117;SDS011;66072;50.238;19.228;2023-03-14T06:38:00;7.20;;;4.20;;
77117;SDS011;66072;50.238;19.228;2023-03-14T06:40:28;7.40;;;4.10;;
77117;SDS011;66072;50.238;19.228;2023-03-14T06:42:57;6.80;;;3.40;;
77117;SDS011;66072;50.238;19.228;2023-03-14T06:45:24;7.10;;;4.20;;
77117;SDS011;66072;50.238;19.228;2023-03-14T06:47:52;7.80;;;4.30;;
77117;SDS011;66072;50.238;19.228;2023-03-14T06:50:19;11.60;;;4.60;;
77117;SDS011;66072;50.238;19.228;2023-03-14T06:52:47;7.10;;;4.20;;
77117;SDS011;66072;50.238;19.228;2023-03-14T06:55:15;7.10;;;3.90;;
77117;SDS011;66072;50.238;19.228;2023-03-14T06:57:43;8.50;;;4.60;;
77117;SDS011;66072;50.238;19.228;2023-03-14T07:00:11;8.80;;;4.90;;
77117;SDS011;66072;50.238;19.228;2023-03-14T07:02:40;14.60;;;5.90;;
77117;SDS011;66072;50.238;19.228;2023-03-14T07:05:10;9.60;;;5.70;;
77117;SDS011;66072;50.238;19.228;2023-03-14T07:07:37;18.60;;;5.80;;
77117;SDS011;66072;50.238;19.228;2023-03-14T07:10:05;10.20;;;5.80;;
77117;SDS011;66072;50.238;19.228;2023-03-14T07:12:33;12.00;;;6.50;;
77117;SDS011;66072;50.238;19.228;2023-03-14T07:15:01;10.50;;;5.40;;
77117;SDS011;66072;50.238;19.228;2023-03-14T07:17:44;9.80;;;5.60;;
77117;SDS011;66072;50.238;19.228;2023-03-14T07:20:12;9.20;;;4.60;;
77117;SDS011;66072;50.238;19.228;2023-03-14T07:22:40;8.60;;;4.60;;
77117;SDS011;66072;50.238;19.228;2023-03-14T07:25:08;11.50;;;6.20;;
77117;SDS011;66072;50.238;19.228;2023-03-14T07:27:36;9.50;;;4.80;;
77117;SDS011;66072;50.238;19.228;2023-03-14T07:30:04;10.90;;;5.20;;
77117;SDS011;66072;50.238;19.228;2023-03-14T07:32:32;8.90;;;5.40;;
77117;SDS011;66072;50.238;19.228;2023-03-14T07:35:00;8.70;;;4.60;;
77117;SDS011;66072;50.238;19.228;2023-03-14T07:37:28;8.40;;;4.10;;
77117;SDS011;66072;50.238;19.228;2023-03-14T07:39:55;9.60;;;5.60;;
77117;SDS011;66072;50.238;19.228;2023-03-14T07:42:23;7.40;;;4.50;;
77117;SDS011;66072;50.238;19.228;2023-03-14T07:44:50;9.20;;;4.00;;
77117;SDS011;66072;50.238;19.228;2023-03-14T07:47:18;10.80;;;5.60;;
77117;SDS011;66072;50.238;19.228;2023-03-14T07:49:46;7.30;;;5.00;;
77117;SDS011;66072;50.238;19.228;2023-03-14T07:52:13;6.90;;;4.10;;
77117;SDS011;66072;50.238;19.228;2023-03-14T07:54:41;8.20;;;5.00;;
77117;SDS011;66072;50.238;19.228;2023-03-14T07:57:08;7.40;;;4.30;;
77117;SDS011;66072;50.238;19.228;2023-03-14T07:59:36;13.10;;;5.60;;
77117;SDS011;66072;50.238;19.228;2023-03-14T08:02:04;7.00;;;3.40;;
77117;SDS011;66072;50.238;19.228;2023-03-14T08:04:32;6.50;;;3.10;;
77117;SDS011;66072;50.238;19.228;2023-03-14T08:07:00;6.50;;;3.20;;
77117;SDS011;66072;50.238;19.228;2023-03-14T08:09:27;4.70;;;2.50;;
77117;SDS011;66072;50.238;19.228;2023-03-14T08:11:55;4.50;;;3.00;;
77117;SDS011;66072;50.238;19.228;2023-03-14T08:14:25;6.50;;;3.10;;
77117;SDS011;66072;50.238;19.228;2023-03-14T08:16:52;5.40;;;3.00;;
77117;SDS011;66072;50.238;19.228;2023-03-14T08:19:20;4.60;;;3.10;;
77117;SDS011;66072;50.238;19.228;2023-03-14T08:21:47;5.30;;;2.60;;
77117;SDS011;66072;50.238;19.228;2023-03-14T08:24:15;7.30;;;3.40;;
77117;SDS011;66072;50.238;19.228;2023-03-14T08:26:43;6.40;;;3.30;;
77117;SDS011;66072;50.238;19.228;2023-03-14T08:29:10;5.20;;;2.50;;
77117;SDS011;66072;50.238;19.228;2023-03-14T08:31:38;5.40;;;3.10;;
77117;SDS011;66072;50.238;19.228;2023-03-14T08:34:06;5.80;;;2.60;;
77117;SDS011;66072;50.238;19.228;2023-03-14T08:36:34;5.80;;;3.00;;
77117;SDS011;66072;50.238;19.228;2023-03-14T08:39:01;4.90;;;2.60;;
77117;SDS011;66072;50.238;19.228;2023-03-14T08:41:29;4.90;;;2.50;;
77117;SDS011;66072;50.238;19.228;2023-03-14T08:43:57;4.00;;;2.90;;
77117;SDS011;66072;50.238;19.228;2023-03-14T08:46:24;6.10;;;2.80;;
77117;SDS011;66072;50.238;19.228;2023-03-14T08:48:52;5.90;;;3.20;;
77117;SDS011;66072;50.238;19.228;2023-03-14T08:51:20;4.50;;;3.00;;
77117;SDS011;66072;50.238;19.228;2023-03-14T08:53:47;5.80;;;3.30;;
77117;SDS011;66072;50.238;19.228;2023-03-14T08:56:15;5.70;;;2.60;;
77117;SDS011;66072;50.238;19.228;2023-03-14T08:58:42;4.90;;;2.90;;
77117;SDS011;66072;50.238;19.228;2023-03-14T09:01:10;5.60;;;3.30;;
77117;SDS011;66072;50.238;19.228;2023-03-14T09:03:38;7.50;;;3.20;;
77117;SDS011;66072;50.238;19.228;2023-03-14T09:06:06;7.10;;;2.90;;
77117;SDS011;66072;50.238;19.228;2023-03-14T09:08:36;5.10;;;3.00;;
77117;SDS011;66072;50.238;19.228;2023-03-14T09:11:08;6.10;;;3.10;;
77117;SDS011;66072;50.238;19.228;2023-03-14T09:13:36;5.10;;;3.00;;
77117;SDS011;66072;50.238;19.228;2023-03-14T09:16:04;6.90;;;3.00;;
77117;SDS011;66072;50.238;19.228;2023-03-14T09:18:32;5.90;;;2.90;;
77117;SDS011;66072;50.238;19.228;2023-03-14T09:21:00;5.40;;;3.40;;
77117;SDS011;66072;50.238;19.228;2023-03-14T09:23:28;5.50;;;3.40;;
77117;SDS011;66072;50.238;19.228;2023-03-14T09:25:56;8.10;;;3.90;;
77117;SDS011;66072;50.238;19.228;2023-03-14T09:28:24;5.50;;;3.00;;
77117;SDS011;66072;50.238;19.228;2023-03-14T09:30:52;6.10;;;2.90;;
77117;SDS011;66072;50.238;19.228;2023-03-14T09:33:20;6.40;;;2.50;;
77117;SDS011;66072;50.238;19.228;2023-03-14T09:35:47;7.30;;;3.70;;
77117;SDS011;66072;50.238;19.228;2023-03-14T09:38:15;5.00;;;2.70;;
77117;SDS011;66072;50.238;19.228;2023-03-14T09:40:43;6.10;;;3.70;;
77117;SDS011;66072;50.238;19.228;2023-03-14T09:43:13;6.70;;;3.40;;
77117;SDS011;66072;50.238;19.228;2023-03-14T09:45:42;4.80;;;2.90;;
77117;SDS011;66072;50.238;19.228;2023-03-14T09:48:20;7.70;;;3.60;;
77117;SDS011;66072;50.238;19.228;2023-03-14T09:50:53;5.60;;;2.60;;
77117;SDS011;66072;50.238;19.228;2023-03-14T09:53:32;5.00;;;3.10;;
77117;SDS011;66072;50.238;19.228;2023-03-14T09:56:14;8.40;;;4.30;;
77117;SDS011;66072;50.238;19.228;2023-03-14T09:58:48;10.10;;;3.70;;
77117;SDS011;66072;50.238;19.228;2023-03-14T10:01:22;5.50;;;3.10;;
77117;SDS011;66072;50.238;19.228;2023-03-14T10:03:54;6.50;;;2.80;;
77117;SDS011;66072;50.238;19.228;2023-03-14T10:06:24;7.60;;;3.00;;
77117;SDS011;66072;50.238;19.228;2023-03-14T10:08:54;13.40;;;3.60;;
77117;SDS011;66072;50.238;19.228;2023-03-14T10:11:23;6.50;;;3.10;;
77117;SDS011;66072;50.238;19.228;2023-03-14T10:16:45;10.40;;;4.30;;
77117;SDS011;66072;50.238;19.228;2023-03-14T10:19:14;5.70;;;3.10;;
77117;SDS011;66072;50.238;19.228;2023-03-14T10:21:44;7.10;;;3.40;;
77117;SDS011;66072;50.238;19.228;2023-03-14T10:24:20;6.20;;;2.90;;
77117;SDS011;66072;50.238;19.228;2023-03-14T10:27:04;5.90;;;2.50;;
77117;SDS011;66072;50.238;19.228;2023-03-14T10:29:33;5.90;;;2.70;;
77117;SDS011;66072;50.238;19.228;2023-03-14T10:32:03;13.50;;;3.70;;
77117;SDS011;66072;50.238;19.228;2023-03-14T10:34:33;7.50;;;3.30;;
77117;SDS011;66072;50.238;19.228;2023-03-14T10:37:24;5.20;;;2.50;;
77117;SDS011;66072;50.238;19.228;2023-03-14T10:39:53;9.50;;;3.50;;
77117;SDS011;66072;50.238;19.228;2023-03-14T10:42:28;5.40;;;2.60;;
77117;SDS011;66072;50.238;19.228;2023-03-14T10:44:58;6.30;;;2.90;;
77117;SDS011;66072;50.238;19.228;2023-03-14T10:47:50;11.50;;;3.70;;
77117;SDS011;66072;50.238;19.228;2023-03-14T10:50:28;5.70;;;2.80;;
77117;SDS011;66072;50.238;19.228;2023-03-14T10:53:00;6.60;;;2.80;;
77117;SDS011;66072;50.238;19.228;2023-03-14T10:55:39;5.50;;;2.70;;
77117;SDS011;66072;50.238;19.228;2023-03-14T10:58:17;6.80;;;2.90;;
77117;SDS011;66072;50.238;19.228;2023-03-14T11:00:57;8.20;;;3.90;;
77117;SDS011;66072;50.238;19.228;2023-03-14T11:03:48;7.00;;;2.80;;
77117;SDS011;66072;50.238;19.228;2023-03-14T11:06:43;5.20;;;2.90;;
77117;SDS011;66072;50.238;19.228;2023-03-14T11:14:59;7.70;;;4.10;;
77117;SDS011;66072;50.238;19.228;2023-03-14T11:31:57;29.90;;;9.00;;
77117;SDS011;66072;50.238;19.228;2023-03-14T11:34:29;7.60;;;3.50;;
77117;SDS011;66072;50.238;19.228;2023-03-14T11:37:14;4.30;;;2.40;;
77117;SDS011;66072;50.238;19.228;2023-03-14T11:42:55;4.60;;;2.50;;
77117;SDS011;66072;50.238;19.228;2023-03-14T11:45:30;5.00;;;1.90;;
77117;SDS011;66072;50.238;19.228;2023-03-14T11:51:05;13.50;;;3.50;;
77117;SDS011;66072;50.238;19.228;2023-03-14T11:53:43;5.10;;;3.30;;
77117;SDS011;66072;50.238;19.228;2023-03-14T11:56:34;6.00;;;3.50;;
77117;SDS011;66072;50.238;19.228;2023-03-14T11:59:27;6.10;;;3.20;;
77117;SDS011;66072;50.238;19.228;2023-03-14T12:01:57;6.70;;;3.00;;
77117;SDS011;66072;50.238;19.228;2023-03-14T12:07:40;6.50;;;3.20;;
77117;SDS011;66072;50.238;19.228;2023-03-14T12:10:28;4.80;;;2.60;;
77117;SDS011;66072;50.238;19.228;2023-03-14T12:12:59;6.70;;;3.40;;
77117;SDS011;66072;50.238;19.228;2023-03-14T12:15:27;7.10;;;3.70;;
77117;SDS011;66072;50.238;19.228;2023-03-14T12:17:54;6.10;;;3.20;;
77117;SDS011;66072;50.238;19.228;2023-03-14T12:20:23;6.50;;;3.40;;
77117;SDS011;66072;50.238;19.228;2023-03-14T12:25:23;8.00;;;3.60;;
77117;SDS011;66072;50.238;19.228;2023-03-14T12:30:30;6.30;;;3.30;;
77117;SDS011;66072;50.238;19.228;2023-03-14T12:35:39;5.80;;;2.90;;
77117;SDS011;66072;50.238;19.228;2023-03-14T12:43:31;6.80;;;3.30;;
77117;SDS011;66072;50.238;19.228;2023-03-14T12:48:53;10.00;;;5.10;;
77117;SDS011;66072;50.238;19.228;2023-03-14T12:51:42;7.60;;;3.80;;
77117;SDS011;66072;50.238;19.228;2023-03-14T12:57:19;6.40;;;3.10;;
77117;SDS011;66072;50.238;19.228;2023-03-14T12:59:56;7.50;;;4.20;;
77117;SDS011;66072;50.238;19.228;2023-03-14T13:02:27;6.90;;;3.20;;
77117;SDS011;66072;50.238;19.228;2023-03-14T13:05:01;7.50;;;3.40;;
77117;SDS011;66072;50.238;19.228;2023-03-14T13:10:29;5.20;;;2.60;;
77117;SDS011;66072;50.238;19.228;2023-03-14T13:15:57;6.60;;;3.30;;
77117;SDS011;66072;50.238;19.228;2023-03-14T13:18:36;5.10;;;3.20;;
77117;SDS011;66072;50.238;19.228;2023-03-14T13:21:19;6.20;;;2.90;;
77117;SDS011;66072;50.238;19.228;2023-03-14T13:26:41;7.70;;;3.70;;
77117;SDS011;66072;50.238;19.228;2023-03-14T13:29:16;7.30;;;3.90;;
77117;SDS011;66072;50.238;19.228;2023-03-14T13:31:45;4.80;;;2.70;;
77117;SDS011;66072;50.238;19.228;2023-03-14T13:34:14;5.70;;;3.30;;
77117;SDS011;66072;50.238;19.228;2023-03-14T13:36:42;7.10;;;3.20;;
77117;SDS011;66072;50.238;19.228;2023-03-14T13:39:10;7.60;;;4.40;;
77117;SDS011;66072;50.238;19.228;2023-03-14T13:41:41;6.00;;;3.10;;
77117;SDS011;66072;50.238;19.228;2023-03-14T13:44:53;4.50;;;2.50;;
77117;SDS011;66072;50.238;19.228;2023-03-14T13:47:03;6.70;;;3.80;;
77117;SDS011;66072;50.238;19.228;2023-03-14T13:49:33;5.80;;;3.20;;
77117;SDS011;66072;50.238;19.228;2023-03-14T13:52:01;6.30;;;2.70;;
77117;SDS011;66072;50.238;19.228;2023-03-14T13:54:30;8.70;;;3.50;;
77117;SDS011;66072;50.238;19.228;2023-03-14T13:56:59;6.20;;;3.20;;
77117;SDS011;66072;50.238;19.228;2023-03-14T13:59:32;5.80;;;2.50;;
77117;SDS011;66072;50.238;19.228;2023-03-14T14:02:10;7.40;;;3.40;;
77117;SDS011;66072;50.238;19.228;2023-03-14T14:04:44;5.80;;;3.40;;
77117;SDS011;66072;50.238;19.228;2023-03-14T14:07:15;8.50;;;3.70;;
77117;SDS011;66072;50.238;19.228;2023-03-14T14:09:46;6.40;;;2.70;;
77117;SDS011;66072;50.238;19.228;2023-03-14T14:12:16;6.80;;;2.90;;
77117;SDS011;66072;50.238;19.228;2023-03-14T14:14:56;5.70;;;3.20;;
77117;SDS011;66072;50.238;19.228;2023-03-14T14:17:28;5.40;;;3.60;;
77117;SDS011;66072;50.238;19.228;2023-03-14T14:20:28;8.00;;;3.50;;
77117;SDS011;66072;50.238;19.228;2023-03-14T14:22:57;6.70;;;2.90;;
77117;SDS011;66072;50.238;19.228;2023-03-14T14:25:26;7.30;;;3.30;;
77117;SDS011;66072;50.238;19.228;2023-03-14T14:27:56;11.60;;;3.40;;
77117;SDS011;66072;50.238;19.228;2023-03-14T14:30:28;6.10;;;2.90;;
77117;SDS011;66072;50.238;19.228;2023-03-14T14:33:11;5.80;;;3.00;;
77117;SDS011;66072;50.238;19.228;2023-03-14T14:35:49;9.90;;;4.40;;
77117;SDS011;66072;50.238;19.228;2023-03-14T14:38:19;9.80;;;5.20;;
77117;SDS011;66072;50.238;19.228;2023-03-14T14:40:49;9.60;;;5.10;;
77117;SDS011;66072;50.238;19.228;2023-03-14T14:43:22;7.60;;;3.80;;
77117;SDS011;66072;50.238;19.228;2023-03-14T14:45:54;7.40;;;3.40;;
77117;SDS011;66072;50.238;19.228;2023-03-14T14:48:23;6.60;;;2.60;;
77117;SDS011;66072;50.238;19.228;2023-03-14T14:56:15;8.80;;;3.60;;
77117;SDS011;66072;50.238;19.228;2023-03-14T14:58:48;7.00;;;3.60;;
77117;SDS011;66072;50.238;19.228;2023-03-14T15:01:17;8.30;;;4.10;;
77117;SDS011;66072;50.238;19.228;2023-03-14T15:03:49;12.10;;;8.70;;
77117;SDS011;66072;50.238;19.228;2023-03-14T15:06:19;9.20;;;5.50;;
77117;SDS011;66072;50.238;19.228;2023-03-14T15:08:48;4.90;;;3.10;;
77117;SDS011;66072;50.238;19.228;2023-03-14T15:11:20;7.50;;;4.60;;
77117;SDS011;66072;50.238;19.228;2023-03-14T15:13:50;8.60;;;4.40;;
77117;SDS011;66072;50.238;19.228;2023-03-14T15:16:22;6.30;;;3.20;;
77117;SDS011;66072;50.238;19.228;2023-03-14T15:18:55;5.40;;;3.20;;
77117;SDS011;66072;50.238;19.228;2023-03-14T15:21:24;7.80;;;3.90;;
77117;SDS011;66072;50.238;19.228;2023-03-14T15:23:53;5.30;;;2.80;;
77117;SDS011;66072;50.238;19.228;2023-03-14T15:26:22;5.50;;;3.50;;
77117;SDS011;66072;50.238;19.228;2023-03-14T15:28:53;7.00;;;3.30;;
77117;SDS011;66072;50.238;19.228;2023-03-14T15:31:21;6.10;;;3.00;;
77117;SDS011;66072;50.238;19.228;2023-03-14T15:33:49;7.10;;;3.90;;
77117;SDS011;66072;50.238;19.228;2023-03-14T15:36:24;6.20;;;3.40;;
77117;SDS011;66072;50.238;19.228;2023-03-14T15:38:54;7.80;;;4.20;;
77117;SDS011;66072;50.238;19.228;2023-03-14T15:41:22;5.90;;;3.30;;
77117;SDS011;66072;50.238;19.228;2023-03-14T15:43:50;5.70;;;3.00;;
77117;SDS011;66072;50.238;19.228;2023-03-14T15:46:18;5.40;;;2.50;;
77117;SDS011;66072;50.238;19.228;2023-03-14T15:48:47;6.80;;;3.60;;
77117;SDS011;66072;50.238;19.228;2023-03-14T15:51:16;6.30;;;3.80;;
77117;SDS011;66072;50.238;19.228;2023-03-14T15:53:45;5.90;;;3.00;;
77117;SDS011;66072;50.238;19.228;2023-03-14T15:56:14;4.30;;;2.60;;
77117;SDS011;66072;50.238;19.228;2023-03-14T15:58:43;6.50;;;3.40;;
77117;SDS011;66072;50.238;19.228;2023-03-14T16:01:11;6.60;;;3.80;;
77117;SDS011;66072;50.238;19.228;2023-03-14T16:03:41;6.50;;;3.60;;
77117;SDS011;66072;50.238;19.228;2023-03-14T16:06:10;6.40;;;3.70;;
77117;SDS011;66072;50.238;19.228;2023-03-14T16:08:39;7.70;;;4.80;;
77117;SDS011;66072;50.238;19.228;2023-03-14T16:11:06;9.10;;;5.00;;